Latest Weather Observations for Ceduna

IDS60801

Issued at 12:31 pm CST Friday 26 August 2016 (issued every 30 minutes, with the page automatically refreshed every 10 minutes)

About weather observations | Map of weather stations | Latest weather observations for SA | Other Formats
Station Details ID: 018012 Name: CEDUNA AMO Lat: -32.13 Lon: 133.70 Height: 15.3 m
Data from the previous 72 hours. | See also: Recent months at Ceduna
Date/Time
CST
Temp
°C
App
Temp
°C
Dew
Point
°C
Rel
Hum
%
Delta-T
°C
Wind Press
QNH
hPa
Press
MSL
hPa
Rain since
9am
mm
Dir  Spd
km/h
Gust
km/h
Spd
kts
Gust
kts
26/12:30pm 17.5 14.2 4.5 42 6.1 NW 11 17 6 9 1024.5 1024.5 0.0
26/12:00pm 17.0 13.7 4.7 44 5.8 NNE 11 17 6 9 1025.1 1025.1 0.0
26/11:30am 16.6 13.6 5.9 49 5.2 NE 11 19 6 10 1025.5 1025.5 0.0
26/11:00am 15.5 11.8 4.3 47 5.2 NNE 13 19 7 10 1025.8 1025.8 0.0
26/10:30am 15.2 11.2 4.9 50 4.8 NE 15 20 8 11 1026.1 1026.1 0.0
26/10:00am 14.3 10.7 6.6 60 3.7 ENE 15 19 8 10 1026.5 1026.5 0.0
26/09:30am 12.3 9.5 6.8 69 2.6 NE 11 15 6 8 1026.8 1026.8 0.0
26/09:00am 8.6 5.8 7.1 90 0.7 NE 11 13 6 7 1026.9 1026.9 0.0
26/08:30am 6.2 3.6 6.1 99 0.0 NE 9 11 5 6 1026.7 1026.7 0.0
26/08:00am 3.3 1.1 3.3 100 0.0 NNE 4 7 2 4 1026.6 1026.6 0.0
26/07:30am 0.5 -3.5 0.5 100 0.0 NE 11 11 6 6 1026.3 1026.3 0.0
26/07:00am 0.0 -3.7 0.0 100 0.0 NNE 9 9 5 5 1026.1 1026.1 0.0
26/06:44am -0.3 -3.7 -0.3 100 0.0 NNE 7 9 4 5 1025.9 1025.9 0.0
26/06:30am -0.3 -3.1 -0.3 100 0.0 N 4 7 2 4 1025.7 1025.7 0.0
26/06:00am 0.3 -2.8 0.3 100 0.0 N 6 7 3 4 1025.4 1025.4 0.0
26/05:59am 0.3 -2.4 0.3 100 0.0 NNE 4 7 2 4 1025.4 1025.4 0.0
26/05:56am 0.2 -2.1 0.1 99 0.0 NE 2 7 1 4 1025.3 1025.3 0.0
26/05:30am 0.1 -1.9 0.0 99 0.0 CALM 0 0 0 0 1024.9 1024.9 0.0
26/05:00am 0.3 -1.7 0.2 99 0.0 CALM 0 0 0 0 1024.5 1024.5 0.0
26/04:30am 0.4 -1.6 0.1 98 0.1 CALM 0 0 0 0 1024.2 1024.2 0.0
26/04:24am 0.7 -1.2 0.6 99 0.0 CALM 0 0 0 0 1024.2 1024.2 0.0
26/04:00am 1.0 -2.2 0.6 97 0.1 NE 7 9 4 5 1024.0 1024.0 0.0
26/03:30am 2.7 -1.0 2.4 98 0.1 ENE 11 13 6 7 1024.1 1024.1 0.0
26/03:00am 2.0 0.3 1.9 99 0.0 CALM 0 0 0 0 1024.5 1024.5 0.0
26/02:57am 1.5 -0.3 1.4 99 0.0 CALM 0 0 0 0 1024.5 1024.5 0.0
26/02:30am 1.5 -0.4 0.8 95 0.3 CALM 0 0 0 0 1024.7 1024.7 0.0
26/02:00am 4.3 3.0 4.0 98 0.1 CALM 0 0 0 0 1024.8 1024.8 0.0
26/01:30am 3.7 2.2 3.1 96 0.2 CALM 0 7 0 4 1025.0 1025.0 0.0
26/01:00am 5.2 2.9 4.8 97 0.2 NE 6 7 3 4 1024.8 1024.8 0.0
26/12:30am 5.1 2.8 4.7 97 0.2 ENE 6 7 3 4 1024.7 1024.7 0.0
26/12:00am 5.5 2.3 5.1 97 0.2 SE 11 13 6 7 1024.7 1024.7 0.0
 
Date/Time
CST
Temp
°C
App
Temp
°C
Dew
Point
°C
Rel
Hum
%
Delta-T
°C
Wind Press
QNH
hPa
Press
MSL
hPa
Rain since
9am
mm
Dir  Spd
km/h
Gust
km/h
Spd
kts
Gust
kts
25/11:30pm 6.1 3.4 5.4 95 0.3 SE 9 11 5 6 1024.5 1024.5 0.0
25/11:00pm 6.6 3.9 5.7 94 0.4 SE 9 11 5 6 1024.6 1024.6 0.0
25/10:30pm 7.5 4.2 6.4 93 0.5 SSE 13 15 7 8 1024.5 1024.5 0.0
25/10:00pm 8.2 5.0 7.0 92 0.6 SE 13 15 7 8 1024.3 1024.3 0.0
25/09:30pm 9.0 5.6 7.8 92 0.6 SSE 15 17 8 9 1024.1 1024.1 0.0
25/09:00pm 9.1 5.8 7.9 92 0.6 SSE 15 17 8 9 1023.9 1023.9 0.0
25/08:30pm 10.3 7.1 8.4 88 0.9 SSE 15 19 8 10 1023.8 1023.8 0.0
25/08:00pm 11.4 8.0 9.3 87 1.1 SSE 17 19 9 10 1023.6 1023.6 0.0
25/07:30pm 11.7 8.4 9.4 86 1.2 SSE 17 20 9 11 1023.4 1023.4 0.0
25/07:00pm 11.6 8.2 9.2 85 1.2 S 17 20 9 11 1022.8 1022.8 0.0
25/06:30pm 12.2 8.8 9.2 82 1.5 SSE 17 22 9 12 1022.5 1022.5 0.0
25/06:00pm 12.9 8.9 9.2 78 1.9 S 20 26 11 14 1022.1 1022.1 0.0
25/05:30pm 13.8 9.6 9.8 77 2.1 S 22 28 12 15 1021.9 1021.9 0.0
25/05:00pm 14.2 9.9 9.4 73 2.5 SSW 22 30 12 16 1021.7 1021.7 0.0
25/04:30pm 14.6 10.4 9.6 72 2.6 SSW 22 28 12 15 1021.5 1021.5 0.0
25/04:00pm 14.8 10.2 9.8 72 2.6 SSW 24 30 13 16 1021.1 1021.1 0.0
25/03:30pm 15.2 11.2 8.9 66 3.2 SW 20 24 11 13 1020.9 1020.9 0.0
25/03:00pm 14.6 10.0 8.3 66 3.2 SW 22 26 12 14 1020.7 1020.7 0.0
25/02:30pm 15.4 11.4 8.9 65 3.3 SSW 20 30 11 16 1020.4 1020.4 0.0
25/02:00pm 14.4 10.3 8.6 68 2.9 SSW 20 24 11 13 1020.6 1020.6 0.0
25/01:30pm 15.2 11.7 10.8 75 2.3 SW 20 24 11 13 1020.7 1020.7 0.0
25/01:00pm 14.7 11.4 9.7 72 2.6 SW 17 24 9 13 1020.8 1020.8 0.0
25/12:30pm 14.8 11.4 9.2 69 2.9 SW 17 22 9 12 1020.9 1020.9 0.0
25/12:00pm 14.3 11.4 9.7 74 2.4 SW 15 19 8 10 1021.2 1021.2 0.0
25/11:30am 13.6 10.3 8.0 69 2.8 SW 15 19 8 10 1021.4 1021.4 0.0
25/11:00am 13.5 12.1 9.4 76 2.1 WSW 7 13 4 7 1021.1 1021.1 0.0
25/10:30am 13.2 11.8 9.6 79 1.8 WNW 7 13 4 7 1021.1 1021.1 0.0
25/10:00am 12.2 10.7 9.0 81 1.6 NW 7 9 4 5 1020.8 1020.8 0.0
25/09:30am 10.8 8.6 7.9 82 1.4 WNW 9 13 5 7 1020.7 1020.7 0.0
25/09:00am 9.5 7.3 7.9 90 0.8 NNW 9 11 5 6 1020.1 1020.1 2.4
25/08:30am 8.0 5.6 7.1 94 0.4 NW 9 11 5 6 1020.0 1020.0 2.4
25/08:00am 6.3 4.1 6.2 99 0.0 NNW 7 9 4 5 1019.6 1019.6 2.4
25/07:30am 3.7 0.6 3.4 98 0.1 N 9 11 5 6 1019.1 1019.1 2.4
25/07:00am 3.7 -0.3 3.1 96 0.2 N 13 15 7 8 1018.7 1018.7 2.4
25/06:30am 5.9 3.2 5.5 97 0.2 NW 9 11 5 6 1018.2 1018.2 2.4
25/06:00am 5.4 2.9 4.8 96 0.3 NW 7 9 4 5 1017.9 1017.9 2.4
25/05:30am 5.4 3.0 4.5 94 0.4 NNW 6 7 3 4 1017.6 1017.6 2.2
25/05:00am 6.7 4.0 5.8 94 0.4 NNW 9 13 5 7 1017.2 1017.2 2.2
25/04:30am 7.3 4.0 6.4 94 0.4 NNW 13 15 7 8 1016.9 1016.9 2.2
25/04:00am 8.0 5.6 7.2 95 0.4 NW 9 15 5 8 1016.8 1016.8 2.2
25/03:30am 7.8 4.3 7.4 97 0.2 NNW 15 20 8 11 1016.3 1016.3 2.2
25/03:00am 7.6 4.5 7.3 98 0.1 NNW 13 19 7 10 1016.5 1016.5 2.2
25/02:30am 7.0 3.7 6.6 97 0.2 NNW 13 13 7 7 1016.6 1016.6 2.2
25/02:00am 6.9 4.4 6.5 97 0.2 N 9 11 5 6 1016.8 1016.8 2.2
25/01:30am 6.7 3.8 6.4 98 0.1 N 11 13 6 7 1016.8 1016.8 2.2
25/01:00am 5.4 3.5 4.7 95 0.3 NNE 4 7 2 4 1016.7 1016.7 2.2
25/12:30am 6.5 3.9 6.1 97 0.2 N 9 11 5 6 1016.9 1016.9 2.2
25/12:00am 7.1 3.9 6.7 97 0.2 NNW 13 17 7 9 1017.1 1017.1 2.2
 
Date/Time
CST
Temp
°C
App
Temp
°C
Dew
Point
°C
Rel
Hum
%
Delta-T
°C
Wind Press
QNH
hPa
Press
MSL
hPa
Rain since
9am
mm
Dir  Spd
km/h
Gust
km/h
Spd
kts
Gust
kts
24/11:30pm 7.2 4.7 6.6 96 0.3 N 9 11 5 6 1016.8 1016.8 2.2
24/11:00pm 7.9 5.6 7.3 96 0.3 NNW 9 11 5 6 1017.1 1017.1 2.2
24/10:30pm 8.4 5.8 7.8 96 0.3 NNW 11 13 6 7 1017.4 1017.4 2.2
24/10:00pm 8.4 5.8 7.8 96 0.3 NNW 11 15 6 8 1017.6 1017.6 2.2
24/09:30pm 7.7 5.3 7.0 95 0.3 NNW 9 11 5 6 1017.4 1017.4 2.2
24/09:00pm 7.7 4.8 6.6 93 0.5 NNW 11 13 6 7 1017.2 1017.2 2.2
24/08:30pm 9.0 6.8 7.9 93 0.5 NW 9 11 5 6 1017.0 1017.0 2.2
24/08:00pm 9.3 7.2 8.4 94 0.4 NNW 9 11 5 6 1016.8 1016.8 2.2
24/07:30pm 9.6 7.6 8.8 95 0.4 NW 9 9 5 5 1016.6 1016.6 2.2
24/07:00pm 10.4 10.3 9.3 93 0.5 CALM 0 7 0 4 1016.3 1016.3 2.2
24/06:37pm 10.7 10.2 9.5 92 0.6 SW 2 9 1 5 1016.1 1016.1 2.2
24/06:30pm 10.7 9.2 9.3 91 0.7 WSW 7 11 4 6 1016.2 1016.2 2.2
24/06:20pm 10.9 7.0 9.5 91 0.7 WSW 20 28 11 15 1016.3 1016.3 1.8
24/06:00pm 12.5 10.3 9.3 81 1.6 W 11 15 6 8 1015.9 1015.9 0.4
24/05:30pm 13.6 11.1 9.8 78 2.0 W 13 17 7 9 1015.6 1015.6 0.4
24/05:00pm 13.4 9.8 9.8 79 1.8 W 19 22 10 12 1015.5 1015.5 0.4
24/04:30pm 13.3 9.5 9.9 80 1.7 W 20 26 11 14 1015.2 1015.2 0.4
24/04:00pm 13.1 9.0 10.1 82 1.5 W 22 33 12 18 1014.9 1014.9 0.4
24/03:30pm 13.5 9.7 9.2 75 2.2 W 19 32 10 17 1014.7 1014.7 0.2
24/03:00pm 14.0 8.9 7.5 65 3.2 WSW 24 33 13 18 1014.6 1014.6 0.2
24/02:30pm 14.9 9.8 10.7 76 2.2 SW 28 39 15 21 1014.8 1014.8 0.2
24/02:00pm 15.2 10.2 11.0 76 2.2 WSW 28 43 15 23 1014.9 1014.9 0.2
24/01:30pm 14.8 11.4 11.4 80 1.8 SW 20 26 11 14 1015.2 1015.2 0.2
24/01:00pm 15.1 11.9 11.9 81 1.7 WSW 20 26 11 14 1015.5 1015.5 0.2
24/12:30pm 13.7 10.4 11.0 84 1.4 WSW 19 24 10 13 1016.0 1016.0 0.2
24/12:00pm 15.8 11.4 9.0 64 3.5 SW 22 28 12 15 1016.0 1016.0 0.0
24/11:30am 14.8 10.9 8.7 67 3.1 WSW 19 24 10 13 1016.4 1016.4 0.0
24/11:00am 15.2 11.9 10.8 75 2.3 W 19 22 10 12 1016.7 1016.7 0.0
24/10:30am 14.4 11.5 11.0 80 1.8 WNW 17 22 9 12 1016.7 1016.7 0.0
24/10:00am 13.6 11.0 10.6 82 1.6 WNW 15 19 8 10 1016.7 1016.7 0.0
24/09:30am 12.6 9.8 10.0 84 1.3 WNW 15 20 8 11 1016.7 1016.7 0.0
24/09:00am 11.5 9.3 10.7 95 0.4 NW 13 19 7 10 1016.7 1016.7 0.2
24/08:30am 8.9 6.5 8.8 99 0.0 NNW 11 15 6 8 1016.7 1016.7 0.2
24/08:00am 6.3 3.7 6.2 99 0.0 N 9 11 5 6 1016.6 1016.6 0.2
24/07:30am 4.5 1.2 4.5 100 0.0 N 11 11 6 6 1016.3 1016.3 0.2
24/07:00am 2.7 -1.0 2.6 99 0.0 N 11 13 6 7 1016.2 1016.2 0.2
24/06:30am 1.8 -2.4 1.5 98 0.1 N 13 15 7 8 1016.1 1016.1 0.2
24/06:00am 1.8 -2.0 1.5 98 0.1 N 11 13 6 7 1015.8 1015.8 0.2
24/05:30am 0.9 -2.4 0.3 96 0.2 N 7 9 4 5 1015.7 1015.7 0.2
24/05:00am 1.1 -2.5 0.7 97 0.1 N 9 11 5 6 1015.5 1015.5 0.2
24/04:30am 1.4 -1.8 1.0 97 0.1 NNE 7 9 4 5 1015.5 1015.5 0.2
24/04:00am 1.2 -2.0 0.6 96 0.2 ENE 7 9 4 5 1015.6 1015.6 0.2
24/03:30am 1.6 -1.6 1.0 96 0.2 NE 7 9 4 5 1015.5 1015.5 0.2
24/03:00am 2.4 -0.4 2.1 98 0.1 NNE 6 7 3 4 1015.6 1015.6 0.2
24/02:30am 3.9 1.1 3.2 95 0.3 N 7 9 4 5 1015.8 1015.8 0.2
24/02:00am 3.3 0.4 2.6 95 0.3 NNE 7 9 4 5 1016.0 1016.0 0.2
24/01:30am 4.3 1.6 3.6 95 0.3 NNE 7 9 4 5 1016.2 1016.2 0.2
24/01:00am 2.9 0.8 2.0 94 0.4 NNE 2 7 1 4 1016.2 1016.2 0.2
24/12:30am 3.1 1.4 2.1 93 0.4 CALM 0 0 0 0 1016.4 1016.4 0.2
24/12:00am 4.8 2.3 3.9 94 0.4 NNW 6 7 3 4 1016.4 1016.4 0.2
 
Date/Time
CST
Temp
°C
App
Temp
°C
Dew
Point
°C
Rel
Hum
%
Delta-T
°C
Wind Press
QNH
hPa
Press
MSL
hPa
Rain since
9am
mm
Dir  Spd
km/h
Gust
km/h
Spd
kts
Gust
kts
23/11:30pm 4.1 0.5 3.1 93 0.4 N 11 11 6 6 1016.5 1016.5 0.2
23/11:00pm 4.4 1.6 3.1 91 0.5 N 7 9 4 5 1016.8 1016.8 0.2
23/10:30pm 5.7 3.6 3.9 88 0.8 NNE 4 6 2 3 1016.9 1016.9 0.2
23/10:00pm 6.1 4.1 4.3 88 0.8 NE 4 6 2 3 1016.9 1016.9 0.2
23/09:30pm 5.4 2.9 3.9 90 0.6 NNE 6 9 3 5 1017.0 1017.0 0.2
23/09:00pm 7.1 4.9 5.3 88 0.8 NNW 6 7 3 4 1016.7 1016.7 0.2
23/08:30pm 7.4 6.4 5.5 88 0.8 CALM 0 0 0 0 1016.5 1016.5 0.2
23/08:00pm 7.5 4.7 5.0 84 1.1 ESE 9 9 5 5 1016.3 1016.3 0.2
23/07:30pm 8.4 5.6 5.2 80 1.4 ESE 9 11 5 6 1016.1 1016.1 0.2
23/07:00pm 10.8 6.8 6.7 76 1.9 ENE 17 19 9 10 1015.7 1015.7 0.2
23/06:30pm 12.9 11.7 6.3 64 3.1 SW 2 6 1 3 1015.1 1015.1 0.2
23/06:00pm 14.1 12.2 7.4 64 3.3 WSW 7 9 4 5 1014.7 1014.7 0.2
23/05:30pm 15.2 13.2 7.0 58 4.0 SSW 7 9 4 5 1014.6 1014.6 0.2
23/05:00pm 16.0 13.7 5.0 48 5.2 SE 6 7 3 4 1014.5 1014.5 0.2
23/04:30pm 16.0 13.2 5.3 49 5.1 S 9 11 5 6 1014.4 1014.4 0.2
23/04:00pm 15.4 12.5 6.7 56 4.2 SSW 11 15 6 8 1014.2 1014.2 0.2
23/03:30pm 15.8 12.5 6.5 54 4.5 SW 13 17 7 9 1014.1 1014.1 0.2
23/03:00pm 15.9 12.4 7.1 56 4.3 SW 15 22 8 12 1014.1 1014.1 0.2
23/02:30pm 17.6 13.7 7.1 50 5.2 WSW 17 24 9 13 1014.1 1014.1 0.2
23/02:00pm 16.1 12.2 7.1 55 4.5 W 17 22 9 12 1014.4 1014.4 0.2
23/01:30pm 16.2 12.2 6.6 53 4.7 W 17 20 9 11 1014.6 1014.6 0.2
23/01:00pm 15.6 11.7 7.1 57 4.2 W 17 20 9 11 1015.2 1015.2 0.2

Other Formats:

Comma delimited format used in spreadsheet applications
http://www.bom.gov.au/fwo/IDS60801/IDS60801.94653.axf

JavaScript Object Notation format (JSON) in row-major order
http://www.bom.gov.au/fwo/IDS60801/IDS60801.94653.json